Time;durP1;ratioP1;P1;durP2;ratioP2;P2;SDS_P1;SDS_P2;PMS_P1;PMS_P2;Temp;Humidity;BMP_temperature;BMP_pressure;BME280_temperature;BME280_humidity;BME280_pressure;Samples;Min_cycle;Max_cycle;Signal;HPM_P1;HPM_P2
2023/11/19 00:00:57;;;;;;;24.08;3.65;;;10.30;99.90;;;;;;4971466;28;20461;-94
2023/11/19 00:03:22;;;;;;;28.00;3.63;;;10.30;99.90;;;;;;4975664;28;20033;-93
2023/11/19 00:05:48;;;;;;;31.85;5.18;;;10.30;99.90;;;;;;4975484;28;20031;-94
2023/11/19 00:08:14;;;;;;;28.17;5.50;;;10.30;99.90;;;;;;4971378;28;20544;-94
2023/11/19 00:10:39;;;;;;;19.17;3.70;;;10.30;99.90;;;;;;4969999;28;20047;-94
2023/11/19 00:13:07;;;;;;;23.50;3.17;;;10.30;99.90;;;;;;4970546;28;20488;-94
2023/11/19 00:15:33;;;;;;;27.88;3.65;;;10.20;99.90;;;;;;4966346;28;20078;-94
2023/11/19 00:17:58;;;;;;;27.20;4.00;;;10.20;99.90;;;;;;4963273;28;20020;-93
2023/11/19 00:20:24;;;;;;;25.63;3.97;;;10.20;99.90;;;;;;4963082;28;20094;-94
2023/11/19 00:22:53;;;;;;;25.20;4.10;;;10.20;99.90;;;;;;4965238;28;20027;-94
2023/11/19 00:25:19;;;;;;;32.63;4.68;;;10.20;99.90;;;;;;4964038;28;20403;-94
2023/11/19 00:27:45;;;;;;;16.67;3.45;;;10.20;99.90;;;;;;4963034;28;20034;-94
2023/11/19 00:30:11;;;;;;;28.13;3.67;;;10.20;99.90;;;;;;4963766;28;20035;-93
2023/11/19 00:32:39;;;;;;;26.15;4.25;;;10.20;99.90;;;;;;4963059;28;20022;-93
2023/11/19 00:35:05;;;;;;;16.23;2.90;;;10.20;99.90;;;;;;4962034;28;20087;-94
2023/11/19 00:37:31;;;;;;;28.48;2.85;;;10.30;99.90;;;;;;4964677;28;20113;-93
2023/11/19 00:39:58;;;;;;;33.40;3.63;;;10.20;99.90;;;;;;4962568;28;20085;-94
2023/11/19 00:42:26;;;;;;;21.00;4.43;;;10.20;99.90;;;;;;4962887;28;20023;-95
2023/11/19 00:44:52;;;;;;;34.85;4.63;;;10.20;99.90;;;;;;4962977;28;20022;-95
2023/11/19 00:47:20;;;;;;;32.10;4.40;;;10.20;99.90;;;;;;4961802;28;20030;-95
2023/11/19 00:49:48;;;;;;;33.67;4.18;;;10.20;99.90;;;;;;4962646;28;20069;-93
2023/11/19 00:52:15;;;;;;;28.98;4.18;;;10.20;99.90;;;;;;4978353;28;20178;-94
2023/11/19 00:54:40;;;;;;;36.03;3.85;;;10.20;99.90;;;;;;4961886;28;20031;-93
2023/11/19 00:57:06;;;;;;;25.55;4.68;;;10.20;99.90;;;;;;4963190;28;20110;-94
2023/11/19 00:59:32;;;;;;;28.48;3.58;;;10.20;99.90;;;;;;4962230;28;20058;-95
2023/11/19 01:02:02;;;;;;;31.02;6.30;;;10.20;99.90;;;;;;4963858;28;20106;-94
2023/11/19 01:04:29;;;;;;;29.30;4.40;;;10.10;99.90;;;;;;4962856;28;20387;-94
2023/11/19 01:06:54;;;;;;;28.63;4.68;;;10.10;99.90;;;;;;4961368;28;20045;-95
2023/11/19 01:09:20;;;;;;;23.25;4.45;;;10.10;99.90;;;;;;4962647;28;20401;-93
2023/11/19 01:11:46;;;;;;;30.55;3.72;;;10.10;99.90;;;;;;4961327;28;20366;-94
2023/11/19 01:14:11;;;;;;;14.30;3.35;;;10.10;99.90;;;;;;4963306;28;20057;-93
2023/11/19 01:16:37;;;;;;;20.85;3.55;;;10.10;99.90;;;;;;4962554;28;20023;-94
2023/11/19 01:19:04;;;;;;;21.58;3.10;;;10.10;99.90;;;;;;4965009;28;20422;-94
2023/11/19 01:21:30;;;;;;;12.15;2.05;;;10.10;99.90;;;;;;4960921;28;20023;-95
2023/11/19 01:23:59;;;;;;;32.95;4.57;;;10.10;99.90;;;;;;4974240;28;20023;-94
2023/11/19 01:26:25;;;;;;;29.38;3.67;;;10.10;99.90;;;;;;4962429;28;20798;-93
2023/11/19 01:28:52;;;;;;;28.15;3.33;;;10.20;99.90;;;;;;4960214;28;20039;-93
2023/11/19 01:31:18;;;;;;;32.00;4.25;;;10.10;99.90;;;;;;4961359;28;20448;-94
2023/11/19 01:33:44;;;;;;;30.35;3.70;;;10.10;99.90;;;;;;4961801;28;20050;-93
2023/11/19 01:36:13;;;;;;;34.75;4.20;;;10.10;99.90;;;;;;4961196;28;20034;-94
2023/11/19 01:38:39;;;;;;;25.80;3.47;;;10.10;99.90;;;;;;4962942;28;20030;-93
2023/11/19 01:41:04;;;;;;;37.00;4.45;;;10.10;99.90;;;;;;4962464;28;20027;-93
2023/11/19 01:43:34;;;;;;;19.23;2.58;;;10.10;99.90;;;;;;4961091;28;20404;-93
2023/11/19 01:46:00;;;;;;;31.45;3.65;;;10.10;99.90;;;;;;4961609;28;20023;-93
2023/11/19 01:48:26;;;;;;;21.85;2.92;;;10.10;99.90;;;;;;4962838;28;20028;-94
2023/11/19 01:50:53;;;;;;;28.77;3.97;;;10.10;99.90;;;;;;4962580;28;20050;-93
2023/11/19 01:53:19;;;;;;;39.60;6.25;;;10.10;99.90;;;;;;4962734;28;20034;-93
2023/11/19 01:55:47;;;;;;;25.52;2.58;;;10.10;99.90;;;;;;4959945;28;20043;-94
2023/11/19 01:58:13;;;;;;;39.83;3.97;;;10.10;99.90;;;;;;4962320;28;20131;-93
2023/11/19 02:00:39;;;;;;;31.25;4.45;;;10.10;99.90;;;;;;4962624;28;20031;-94
2023/11/19 02:03:09;;;;;;;26.08;3.63;;;10.10;99.90;;;;;;4962522;28;20031;-93
2023/11/19 02:05:35;;;;;;;27.40;3.53;;;10.10;99.90;;;;;;4962300;28;20078;-93
2023/11/19 02:08:02;;;;;;;24.42;4.55;;;10.10;99.90;;;;;;4962445;28;20043;-93
2023/11/19 02:10:28;;;;;;;27.33;3.10;;;10.10;99.90;;;;;;4964927;28;20090;-92
2023/11/19 02:12:55;;;;;;;28.42;3.60;;;10.20;99.90;;;;;;4962868;28;20373;-94
2023/11/19 02:15:24;;;;;;;33.55;4.63;;;10.20;99.90;;;;;;4961595;28;20023;-94
2023/11/19 02:17:51;;;;;;;27.08;3.72;;;10.20;99.90;;;;;;4962956;28;20027;-93
2023/11/19 02:20:19;;;;;;;17.95;2.40;;;10.20;99.90;;;;;;4961969;28;20019;-94
2023/11/19 02:22:46;;;;;;;23.50;3.70;;;10.20;99.90;;;;;;4963097;28;20023;-94
2023/11/19 02:25:25;;;;;;;29.20;3.55;;;10.20;99.90;;;;;;4964463;28;20035;-93
2023/11/19 02:27:59;;;;;;;29.40;4.75;;;10.20;99.90;;;;;;4968597;28;20015;-93
2023/11/19 02:30:26;;;;;;;27.35;3.58;;;10.20;99.90;;;;;;4966719;28;20039;-94
2023/11/19 02:32:57;;;;;;;26.63;3.85;;;10.20;99.90;;;;;;4966205;28;20037;-93
2023/11/19 02:35:23;;;;;;;23.05;3.92;;;10.20;99.90;;;;;;4965226;28;20074;-94
2023/11/19 02:37:49;;;;;;;27.02;3.25;;;10.20;99.90;;;;;;4964404;28;20389;-93
2023/11/19 02:40:15;;;;;;;25.63;4.50;;;10.20;99.90;;;;;;4966725;28;20023;-94
2023/11/19 02:42:41;;;;;;;33.65;2.78;;;10.10;99.90;;;;;;4964929;28;20089;-94
2023/11/19 02:45:13;;;;;;;22.40;3.95;;;10.10;99.90;;;;;;4980625;28;20082;-93
2023/11/19 02:47:39;;;;;;;36.85;4.15;;;10.10;99.90;;;;;;4982552;28;20023;-93
2023/11/19 02:50:13;;;;;;;22.85;2.83;;;10.10;99.90;;;;;;4980066;28;20042;-93
2023/11/19 02:52:39;;;;;;;25.80;3.38;;;10.10;99.90;;;;;;4976822;28;20045;-92
2023/11/19 02:55:09;;;;;;;25.98;4.72;;;10.10;99.90;;;;;;4983476;28;20036;-93
2023/11/19 02:57:35;;;;;;;22.98;3.83;;;10.10;99.90;;;;;;4984872;28;20029;-93
2023/11/19 03:00:00;;;;;;;28.95;2.95;;;10.10;99.90;;;;;;4984924;28;20027;-93
2023/11/19 03:02:33;;;;;;;25.45;3.05;;;10.10;99.90;;;;;;4974965;28;20027;-92
2023/11/19 03:04:59;;;;;;;22.75;3.03;;;10.10;99.90;;;;;;4969612;28;20023;-94
2023/11/19 03:07:25;;;;;;;27.00;3.20;;;10.10;99.90;;;;;;4972619;28;20047;-93
2023/11/19 03:09:51;;;;;;;18.85;3.10;;;10.10;99.90;;;;;;4975327;28;20099;-94
2023/11/19 03:12:16;;;;;;;20.48;2.80;;;10.10;99.90;;;;;;4977283;28;20078;-92
2023/11/19 03:14:44;;;;;;;23.80;3.53;;;10.10;99.90;;;;;;4977418;28;20481;-93
2023/11/19 03:17:10;;;;;;;20.67;3.55;;;10.10;99.90;;;;;;4976047;28;20042;-93
2023/11/19 03:19:36;;;;;;;34.10;4.07;;;10.10;99.90;;;;;;4975552;28;20088;-93
2023/11/19 03:22:02;;;;;;;27.83;3.75;;;10.10;99.90;;;;;;4975932;28;20100;-94
2023/11/19 03:24:27;;;;;;;23.25;3.58;;;10.20;99.90;;;;;;4971573;28;20039;-93
2023/11/19 03:26:53;;;;;;;28.63;3.13;;;10.10;99.90;;;;;;4974150;28;20114;-93
2023/11/19 03:29:19;;;;;;;27.63;3.85;;;10.20;99.90;;;;;;4975415;28;20027;-93
2023/11/19 03:31:44;;;;;;;20.17;3.47;;;10.10;99.90;;;;;;4972228;28;20185;-93
2023/11/19 03:34:10;;;;;;;32.97;3.83;;;10.20;99.90;;;;;;4970405;28;20015;-94
2023/11/19 03:36:36;;;;;;;32.72;6.45;;;10.10;99.90;;;;;;4974450;28;20182;-93
2023/11/19 03:39:03;;;;;;;26.65;3.75;;;10.10;99.90;;;;;;4972082;28;20023;-94
2023/11/19 03:41:28;;;;;;;18.05;3.13;;;10.10;99.90;;;;;;4969344;28;20497;-93
2023/11/19 03:43:56;;;;;;;30.50;3.50;;;10.00;99.90;;;;;;4969742;28;20030;-93
2023/11/19 03:46:22;;;;;;;18.33;3.50;;;10.00;99.90;;;;;;4968933;28;20045;-94
2023/11/19 03:48:50;;;;;;;20.13;2.90;;;10.10;99.90;;;;;;4969081;28;20019;-93
2023/11/19 03:51:17;;;;;;;28.35;3.15;;;10.00;99.90;;;;;;4968901;28;20041;-93
2023/11/19 03:53:46;;;;;;;16.38;3.40;;;10.00;99.90;;;;;;4965353;28;20027;-93
2023/11/19 03:56:12;;;;;;;15.13;2.03;;;10.00;99.90;;;;;;4963560;28;20019;-94
2023/11/19 03:58:39;;;;;;;20.27;3.10;;;10.00;99.90;;;;;;4964319;28;20023;-94
2023/11/19 04:01:05;;;;;;;25.52;3.10;;;10.00;99.90;;;;;;4963810;28;20034;-93
2023/11/19 04:03:31;;;;;;;19.05;2.65;;;10.00;99.90;;;;;;4963587;28;20058;-94
2023/11/19 04:05:57;;;;;;;16.23;2.50;;;9.90;99.90;;;;;;4963436;28;20054;-93
2023/11/19 04:08:23;;;;;;;23.17;3.65;;;9.90;99.90;;;;;;4964403;28;20452;-95
2023/11/19 04:10:49;;;;;;;19.80;3.92;;;9.90;99.90;;;;;;4963885;28;20035;-94
2023/11/19 04:13:14;;;;;;;18.95;3.10;;;9.90;99.90;;;;;;4964883;28;20110;-93
2023/11/19 04:15:40;;;;;;;24.25;3.58;;;9.90;99.90;;;;;;4964847;28;20460;-93
2023/11/19 04:18:06;;;;;;;26.42;3.08;;;9.90;99.90;;;;;;4967576;28;20439;-93
2023/11/19 04:20:31;;;;;;;18.15;3.30;;;9.90;99.90;;;;;;4964441;28;20109;-94
2023/11/19 04:22:57;;;;;;;27.73;4.25;;;9.90;99.90;;;;;;4963575;28;20023;-93
2023/11/19 04:25:26;;;;;;;28.27;3.85;;;9.90;99.90;;;;;;4963470;28;20026;-94
2023/11/19 04:27:51;;;;;;;23.80;3.97;;;10.00;99.90;;;;;;4963410;28;20031;-93
2023/11/19 04:30:18;;;;;;;23.52;2.50;;;10.00;99.90;;;;;;4963109;28;20026;-93
2023/11/19 04:32:44;;;;;;;24.73;3.05;;;10.00;99.90;;;;;;4963895;28;20050;-93
2023/11/19 04:35:10;;;;;;;29.27;3.72;;;10.00;99.90;;;;;;4963635;28;20027;-93
2023/11/19 04:37:37;;;;;;;16.88;2.35;;;10.00;99.90;;;;;;4963636;28;20086;-94
2023/11/19 04:40:03;;;;;;;14.85;2.70;;;10.00;99.90;;;;;;4963948;28;20019;-92
2023/11/19 04:42:29;;;;;;;15.43;2.67;;;10.00;99.90;;;;;;4964659;28;20030;-94
2023/11/19 04:44:55;;;;;;;29.20;4.38;;;10.10;99.90;;;;;;4963967;28;20023;-94
2023/11/19 04:47:21;;;;;;;22.05;4.03;;;10.10;99.90;;;;;;4963906;28;20035;-93
2023/11/19 04:49:46;;;;;;;24.48;4.15;;;10.10;99.90;;;;;;4965042;28;20035;-94
2023/11/19 04:52:12;;;;;;;26.55;3.58;;;10.10;99.90;;;;;;4966350;28;20019;-94
2023/11/19 04:54:44;;;;;;;27.90;2.58;;;10.10;99.90;;;;;;4963984;28;20134;-94
2023/11/19 04:57:13;;;;;;;14.88;2.15;;;10.10;99.90;;;;;;4964112;28;20512;-94
2023/11/19 04:59:38;;;;;;;19.30;2.47;;;10.10;99.90;;;;;;4964035;28;20026;-94
2023/11/19 05:02:05;;;;;;;14.70;2.10;;;10.10;99.90;;;;;;4961537;28;20034;-94
2023/11/19 05:04:31;;;;;;;18.42;2.63;;;10.10;99.90;;;;;;4962057;28;20604;-93
2023/11/19 05:06:57;;;;;;;22.13;2.95;;;10.00;99.90;;;;;;4970927;28;20060;-94
2023/11/19 05:09:23;;;;;;;12.07;1.88;;;10.00;99.90;;;;;;4964995;28;20396;-93
2023/11/19 05:11:48;;;;;;;22.25;2.20;;;10.00;99.90;;;;;;4966469;28;20018;-94
2023/11/19 05:14:15;;;;;;;11.15;2.25;;;9.90;99.90;;;;;;4967196;28;20046;-95
2023/11/19 05:16:41;;;;;;;18.25;2.25;;;9.90;99.90;;;;;;4983852;28;20093;-94
2023/11/19 05:19:06;;;;;;;10.38;2.05;;;9.90;99.90;;;;;;4965593;28;20023;-93
2023/11/19 05:21:33;;;;;;;20.05;2.75;;;9.90;99.90;;;;;;4965426;28;20054;-94
2023/11/19 05:23:58;;;;;;;14.00;2.90;;;9.80;99.90;;;;;;4967508;28;20023;-93
2023/11/19 05:26:24;;;;;;;19.25;2.15;;;9.90;99.90;;;;;;4966184;28;20085;-93
2023/11/19 05:28:50;;;;;;;17.17;2.28;;;9.90;99.90;;;;;;4966859;28;20062;-95
2023/11/19 05:31:17;;;;;;;15.98;2.42;;;9.90;99.90;;;;;;4966740;28;20431;-93
2023/11/19 05:33:43;;;;;;;20.55;2.70;;;9.80;99.90;;;;;;4968209;28;20032;-94
2023/11/19 05:36:12;;;;;;;14.82;2.35;;;9.90;99.90;;;;;;4968380;28;20153;-94
2023/11/19 05:38:38;;;;;;;24.65;2.22;;;9.90;99.90;;;;;;4967671;28;20023;-94
2023/11/19 05:41:04;;;;;;;22.67;2.90;;;9.90;99.90;;;;;;4966557;28;20372;-94
2023/11/19 05:43:31;;;;;;;24.63;3.05;;;9.90;99.90;;;;;;4976497;28;20065;-93
2023/11/19 05:45:56;;;;;;;23.80;3.65;;;9.90;99.90;;;;;;4999966;28;20031;-93
2023/11/19 05:48:22;;;;;;;17.25;2.80;;;9.90;99.90;;;;;;4968484;28;20038;-93
2023/11/19 05:50:49;;;;;;;22.15;2.30;;;10.00;99.90;;;;;;4965524;28;20106;-94
2023/11/19 05:53:15;;;;;;;13.45;2.58;;;10.00;99.90;;;;;;4964786;28;20093;-93
2023/11/19 05:55:54;;;;;;;20.27;2.33;;;10.00;99.90;;;;;;4965559;28;20097;-93
2023/11/19 05:58:22;;;;;;;15.75;2.38;;;10.00;99.90;;;;;;4967472;28;20063;-92
2023/11/19 06:00:50;;;;;;;26.70;4.50;;;10.00;99.90;;;;;;4968237;28;20062;-93
2023/11/19 06:03:16;;;;;;;19.33;2.33;;;10.00;99.90;;;;;;4967837;28;20026;-93
2023/11/19 06:05:45;;;;;;;18.60;3.13;;;10.00;99.90;;;;;;4970133;28;20049;-92
2023/11/19 06:08:12;;;;;;;18.30;2.78;;;10.00;99.90;;;;;;4969679;28;20046;-94
2023/11/19 06:10:41;;;;;;;15.38;2.20;;;10.00;99.90;;;;;;4968985;28;20113;-93
2023/11/19 06:13:09;;;;;;;22.15;2.80;;;10.00;99.90;;;;;;4968232;28;20022;-93
2023/11/19 06:15:36;;;;;;;17.98;2.65;;;10.00;99.90;;;;;;4969449;28;20045;-93
2023/11/19 06:18:03;;;;;;;19.67;2.60;;;10.00;99.90;;;;;;4967844;28;20021;-94
2023/11/19 06:20:29;;;;;;;21.23;3.15;;;10.10;99.90;;;;;;4970156;28;20026;-93
2023/11/19 06:22:56;;;;;;;14.77;2.83;;;10.10;99.90;;;;;;4970930;28;20432;-94
2023/11/19 06:25:23;;;;;;;18.55;2.58;;;10.10;99.90;;;;;;4972204;28;20023;-94
2023/11/19 06:27:49;;;;;;;23.52;2.97;;;10.10;99.90;;;;;;4984199;28;20022;-94
2023/11/19 06:30:16;;;;;;;20.42;3.30;;;10.10;99.90;;;;;;4982385;28;20042;-93
2023/11/19 06:32:42;;;;;;;18.15;2.50;;;10.10;99.90;;;;;;4984865;28;20027;-94
2023/11/19 06:35:09;;;;;;;17.50;2.88;;;10.10;99.90;;;;;;4983734;28;20022;-94
2023/11/19 06:37:35;;;;;;;14.45;2.50;;;10.10;99.90;;;;;;4982625;28;20034;-94
2023/11/19 06:40:01;;;;;;;13.63;2.50;;;10.10;99.90;;;;;;4978421;28;20030;-93
2023/11/19 06:42:27;;;;;;;16.83;2.38;;;10.10;99.90;;;;;;4973581;28;20023;-93
2023/11/19 06:44:52;;;;;;;14.13;2.53;;;10.10;99.90;;;;;;4973534;28;20038;-93
2023/11/19 06:47:18;;;;;;;15.63;2.05;;;10.10;99.90;;;;;;4969203;28;20031;-93
2023/11/19 06:49:44;;;;;;;16.42;2.35;;;10.00;99.90;;;;;;4969897;28;20606;-94
2023/11/19 06:52:10;;;;;;;7.20;1.25;;;10.10;99.90;;;;;;4969595;28;20122;-92
2023/11/19 06:54:39;;;;;;;20.98;2.47;;;10.10;99.90;;;;;;4971360;28;20035;-93
2023/11/19 06:57:05;;;;;;;16.42;2.67;;;10.10;99.90;;;;;;4967223;28;20022;-94
2023/11/19 06:59:31;;;;;;;18.52;3.70;;;10.10;99.90;;;;;;4968915;28;20023;-94
2023/11/19 07:01:56;;;;;;;14.23;2.22;;;10.10;99.90;;;;;;4969134;28;20026;-93
2023/11/19 07:04:22;;;;;;;19.40;3.03;;;10.00;99.90;;;;;;4969506;28;20031;-94
2023/11/19 07:06:49;;;;;;;15.68;3.10;;;10.10;99.90;;;;;;4965219;28;20047;-93
2023/11/19 07:09:15;;;;;;;13.57;2.20;;;10.00;99.90;;;;;;4966234;28;20508;-92
2023/11/19 07:11:41;;;;;;;21.70;3.10;;;10.00;99.90;;;;;;4972854;28;20053;-92
2023/11/19 07:14:08;;;;;;;17.25;2.20;;;10.00;99.90;;;;;;4968889;28;20114;-93
2023/11/19 07:16:34;;;;;;;13.80;1.75;;;10.00;99.90;;;;;;4965610;28;20067;-92
2023/11/19 07:19:01;;;;;;;15.05;1.92;;;10.00;99.90;;;;;;4964868;28;20050;-93
2023/11/19 07:21:30;;;;;;;24.23;3.22;;;10.00;99.90;;;;;;4965181;28;20023;-92
2023/11/19 07:24:43;;;;;;;13.43;1.90;;;10.00;99.90;;;;;;4964252;28;20024;-92
2023/11/19 07:27:08;;;;;;;20.33;1.95;;;10.00;99.90;;;;;;4963763;28;20050;-93
2023/11/19 07:29:35;;;;;;;17.00;1.85;;;10.00;99.90;;;;;;4963605;28;20050;-92
2023/11/19 07:32:02;;;;;;;16.92;2.60;;;10.00;99.90;;;;;;4964361;28;20500;-92
2023/11/19 07:34:29;;;;;;;23.27;4.13;;;10.00;99.90;;;;;;4962787;28;20027;-93
2023/11/19 07:36:57;;;;;;;18.40;2.13;;;10.00;99.90;;;;;;4964178;28;20066;-90
2023/11/19 07:39:23;;;;;;;15.25;2.15;;;10.00;99.90;;;;;;4963893;28;20027;-92
2023/11/19 07:41:49;;;;;;;17.73;2.22;;;10.00;99.90;;;;;;4963965;28;20122;-92
2023/11/19 07:44:14;;;;;;;26.85;3.28;;;10.10;99.90;;;;;;4969483;28;20064;-93
2023/11/19 07:46:42;;;;;;;19.52;3.58;;;10.10;99.90;;;;;;4969481;28;20035;-93
2023/11/19 07:49:11;;;;;;;20.75;2.58;;;10.10;99.90;;;;;;4964463;28;20030;-93
2023/11/19 07:51:37;;;;;;;14.90;2.03;;;10.10;99.90;;;;;;4962816;28;20045;-94
2023/11/19 07:54:06;;;;;;;15.50;2.03;;;10.10;99.90;;;;;;4965066;28;20027;-94
2023/11/19 07:56:37;;;;;;;17.15;2.78;;;10.10;99.90;;;;;;4975529;28;20029;-92
2023/11/19 07:59:06;;;;;;;20.25;2.33;;;10.20;99.90;;;;;;4975064;28;20023;-93
2023/11/19 08:01:32;;;;;;;19.10;2.78;;;10.20;99.90;;;;;;4975623;28;20037;-93
2023/11/19 08:04:02;;;;;;;21.92;2.60;;;10.20;99.90;;;;;;4953837;28;20031;-93
2023/11/19 08:06:27;;;;;;;15.57;3.15;;;10.20;99.90;;;;;;4952140;28;20422;-92
2023/11/19 08:08:54;;;;;;;22.40;2.88;;;10.30;99.90;;;;;;4971336;28;20040;-92
2023/11/19 08:11:20;;;;;;;15.57;2.35;;;10.30;99.90;;;;;;4964848;28;20049;-92
2023/11/19 08:13:45;;;;;;;18.30;2.70;;;10.30;99.90;;;;;;4977730;28;20015;-92
2023/11/19 08:16:15;;;;;;;20.45;2.50;;;10.40;99.90;;;;;;4981414;28;20542;-93
2023/11/19 08:18:44;;;;;;;10.85;2.15;;;10.40;99.90;;;;;;4976436;28;20026;-93
2023/11/19 08:21:10;;;;;;;18.65;3.15;;;10.50;99.90;;;;;;4958115;28;20614;-93
2023/11/19 08:23:36;;;;;;;19.52;2.50;;;10.50;99.90;;;;;;4958031;28;20031;-95
2023/11/19 08:26:03;;;;;;;22.33;2.65;;;10.60;99.90;;;;;;4959403;28;20042;-94
2023/11/19 08:28:29;;;;;;;10.35;2.50;;;10.60;99.90;;;;;;4958355;28;20027;-94
2023/11/19 08:30:55;;;;;;;15.75;2.85;;;10.70;99.90;;;;;;4958339;28;20038;-95
2023/11/19 08:33:22;;;;;;;16.23;2.92;;;10.70;99.90;;;;;;4958729;28;20090;-95
2023/11/19 08:35:48;;;;;;;17.10;2.58;;;10.60;99.90;;;;;;4963828;28;20030;-94
2023/11/19 08:38:14;;;;;;;11.68;1.58;;;10.70;99.90;;;;;;4974896;28;20023;-95
2023/11/19 08:40:40;;;;;;;13.90;2.17;;;10.70;99.90;;;;;;4955100;28;20026;-96
2023/11/19 08:43:06;;;;;;;11.38;1.95;;;10.60;99.90;;;;;;4950421;28;20118;-95
2023/11/19 08:45:32;;;;;;;11.75;1.92;;;10.60;99.90;;;;;;4949655;28;20083;-94
2023/11/19 08:47:58;;;;;;;12.02;2.00;;;10.60;99.90;;;;;;4945071;29;20023;-95
2023/11/19 08:50:24;;;;;;;14.27;2.00;;;10.60;99.90;;;;;;4938819;29;20142;-95
2023/11/19 08:52:49;;;;;;;15.10;1.90;;;10.60;99.90;;;;;;4956100;29;20027;-95
2023/11/19 08:55:16;;;;;;;15.38;2.40;;;10.60;99.90;;;;;;4938839;29;20128;-95
2023/11/19 08:57:42;;;;;;;16.70;2.42;;;10.70;99.90;;;;;;4939305;29;20023;-93
2023/11/19 09:00:08;;;;;;;16.20;2.67;;;10.70;99.90;;;;;;4955165;29;20052;-93
2023/11/19 09:02:38;;;;;;;16.05;2.13;;;10.60;99.90;;;;;;4939813;29;20019;-92
2023/11/19 09:05:05;;;;;;;14.80;1.83;;;10.70;99.90;;;;;;4939340;29;20023;-93
2023/11/19 09:07:32;;;;;;;15.90;2.13;;;10.70;99.90;;;;;;4935833;29;20398;-94
2023/11/19 09:09:57;;;;;;;14.40;1.95;;;10.70;99.90;;;;;;4935828;29;20046;-93
2023/11/19 09:12:24;;;;;;;11.48;2.80;;;10.70;99.90;;;;;;4935445;29;20023;-93
2023/11/19 09:14:50;;;;;;;17.83;2.20;;;10.70;99.90;;;;;;4935357;29;20146;-92
2023/11/19 09:17:17;;;;;;;17.08;3.33;;;10.70;99.90;;;;;;4935342;29;20028;-92
2023/11/19 09:19:43;;;;;;;11.13;1.98;;;10.70;99.90;;;;;;4942575;29;20024;-93
2023/11/19 09:22:09;;;;;;;17.05;2.70;;;10.80;99.90;;;;;;4947453;29;20027;-93
2023/11/19 09:24:34;;;;;;;17.70;3.72;;;10.80;99.90;;;;;;4946031;29;20020;-92
2023/11/19 09:27:00;;;;;;;15.43;1.75;;;10.80;99.90;;;;;;4944976;29;20545;-92
2023/11/19 09:29:26;;;;;;;16.15;2.03;;;10.80;99.90;;;;;;4946856;29;20099;-93
2023/11/19 09:31:52;;;;;;;18.92;2.50;;;10.70;99.90;;;;;;4959078;28;20031;-93
2023/11/19 09:34:18;;;;;;;11.63;2.03;;;10.80;99.90;;;;;;4959283;29;20039;-95
2023/11/19 09:36:46;;;;;;;12.55;1.65;;;10.80;99.90;;;;;;4960724;28;20042;-93
2023/11/19 09:39:14;;;;;;;23.45;3.10;;;10.80;99.90;;;;;;4956259;29;20425;-94
2023/11/19 09:41:41;;;;;;;10.70;1.70;;;10.80;99.90;;;;;;4957395;29;20058;-94
2023/11/19 09:44:09;;;;;;;9.38;1.35;;;10.80;99.90;;;;;;4966113;29;20028;-94
2023/11/19 09:46:35;;;;;;;11.20;2.00;;;10.80;99.90;;;;;;4953161;29;20043;-94
2023/11/19 09:49:04;;;;;;;8.98;1.42;;;10.80;99.90;;;;;;4962460;29;20024;-95
2023/11/19 09:51:30;;;;;;;7.68;1.20;;;10.90;99.90;;;;;;4950935;28;20034;-94
2023/11/19 09:53:56;;;;;;;8.90;1.27;;;10.90;99.90;;;;;;4953600;29;20027;-94
2023/11/19 09:56:22;;;;;;;4.40;1.25;;;10.90;99.90;;;;;;4951644;29;20077;-92
2023/11/19 09:58:48;;;;;;;7.95;1.30;;;10.90;99.90;;;;;;4952136;29;20413;-92
2023/11/19 10:01:14;;;;;;;8.02;1.10;;;10.90;99.90;;;;;;4950958;29;20023;-92
2023/11/19 10:03:43;;;;;;;4.47;1.00;;;10.90;99.90;;;;;;4948920;29;20127;-93
2023/11/19 10:06:10;;;;;;;9.65;1.35;;;10.80;99.90;;;;;;4950409;29;20024;-93
2023/11/19 10:08:40;;;;;;;8.38;1.00;;;10.80;99.90;;;;;;4954832;29;20068;-92
2023/11/19 10:11:11;;;;;;;5.13;1.10;;;10.80;99.90;;;;;;4959510;29;20039;-93
2023/11/19 10:13:38;;;;;;;5.47;1.42;;;10.70;99.90;;;;;;4962566;28;20491;-93
2023/11/19 10:16:11;;;;;;;2.95;0.90;;;10.70;99.90;;;;;;4960930;28;20067;-93
2023/11/19 10:18:38;;;;;;;10.00;1.00;;;10.70;99.90;;;;;;4957415;29;20063;-93
2023/11/19 10:21:07;;;;;;;8.10;1.20;;;10.70;99.90;;;;;;4949506;29;20028;-95
2023/11/19 10:23:56;;;;;;;6.65;1.05;;;10.70;99.90;;;;;;4962151;28;20037;-95
2023/11/19 10:26:23;;;;;;;4.43;1.10;;;10.70;99.90;;;;;;4966298;28;20503;-95
2023/11/19 10:28:49;;;;;;;5.00;0.90;;;10.70;99.90;;;;;;4966000;28;20037;-96
2023/11/19 10:31:16;;;;;;;9.77;1.73;;;10.70;99.90;;;;;;4962652;28;20039;-94
2023/11/19 10:33:44;;;;;;;5.32;1.17;;;10.70;99.90;;;;;;4970285;28;20122;-94
2023/11/19 10:36:11;;;;;;;3.10;0.95;;;10.70;99.90;;;;;;4963127;28;20147;-95
2023/11/19 10:38:38;;;;;;;5.85;0.80;;;10.70;99.90;;;;;;4963774;28;20027;-95
2023/11/19 10:41:05;;;;;;;4.00;0.88;;;10.70;99.90;;;;;;4964109;28;20039;-95
2023/11/19 10:43:31;;;;;;;3.08;0.70;;;10.70;99.90;;;;;;4961918;28;20026;-96
2023/11/19 10:46:13;;;;;;;3.17;0.50;;;10.80;99.90;;;;;;4964333;28;20042;-94
2023/11/19 10:48:40;;;;;;;9.35;1.95;;;10.80;99.90;;;;;;4964243;28;20034;-95
2023/11/19 10:51:07;;;;;;;7.05;1.10;;;10.80;99.90;;;;;;4963616;28;20085;-95
2023/11/19 10:53:37;;;;;;;3.53;1.00;;;10.90;99.90;;;;;;4961137;28;20023;-94
2023/11/19 10:56:08;;;;;;;3.53;0.90;;;10.90;99.90;;;;;;4967770;28;20031;-95
2023/11/19 10:58:35;;;;;;;7.40;1.08;;;10.90;99.90;;;;;;4965260;28;20610;-94
2023/11/19 11:01:13;;;;;;;4.43;0.68;;;10.90;99.90;;;;;;4964940;28;20508;-95
2023/11/19 11:03:40;;;;;;;3.90;0.70;;;10.90;99.90;;;;;;4963846;28;20038;-95
2023/11/19 11:06:06;;;;;;;1.83;0.70;;;10.90;99.90;;;;;;4963083;28;20030;-93
2023/11/19 11:08:35;;;;;;;4.18;0.90;;;10.90;99.90;;;;;;4967220;28;20118;-95
2023/11/19 11:11:02;;;;;;;2.65;0.65;;;10.90;99.90;;;;;;4966472;28;20041;-95
2023/11/19 11:13:29;;;;;;;1.73;0.70;;;10.90;99.90;;;;;;4959236;28;20023;-93
2023/11/19 11:15:57;;;;;;;4.57;0.90;;;10.90;99.90;;;;;;4968472;28;20035;-93
2023/11/19 11:18:25;;;;;;;4.78;0.80;;;10.90;99.90;;;;;;4958891;29;20039;-92
2023/11/19 11:20:55;;;;;;;2.85;0.68;;;11.00;99.90;;;;;;4963418;28;20039;-92
2023/11/19 11:23:46;;;;;;;1.92;0.68;;;11.00;99.90;;;;;;4940216;29;20039;-91
2023/11/19 11:26:21;;;;;;;2.08;0.57;;;10.90;99.90;;;;;;4937969;29;20047;-92
2023/11/19 11:29:05;;;;;;;2.17;1.45;;;10.90;99.90;;;;;;4942894;29;20135;-89
2023/11/19 11:31:42;;;;;;;3.72;0.43;;;10.90;99.90;;;;;;4936913;29;20067;-90
2023/11/19 11:34:33;;;;;;;2.33;0.50;;;10.90;99.90;;;;;;4949872;29;20023;-89
2023/11/19 11:37:19;;;;;;;4.50;0.80;;;11.00;99.90;;;;;;4955448;29;20102;-88
2023/11/19 11:39:50;;;;;;;2.55;0.82;;;11.00;99.90;;;;;;4954496;28;20035;-87
2023/11/19 11:42:22;;;;;;;2.20;0.47;;;11.00;99.90;;;;;;4954514;29;20481;-87
2023/11/19 11:45:08;;;;;;;1.83;0.40;;;11.00;99.90;;;;;;4953611;29;20039;-87
2023/11/19 11:47:43;;;;;;;0.68;0.30;;;11.00;99.90;;;;;;4954742;28;20046;-90
2023/11/19 11:50:11;;;;;;;4.15;2.03;;;11.10;99.90;;;;;;4953812;28;20035;-88
2023/11/19 11:52:58;;;;;;;0.65;0.50;;;11.10;99.90;;;;;;4953346;29;20115;-87
2023/11/19 11:55:33;;;;;;;1.40;0.40;;;11.10;99.90;;;;;;4954111;28;20035;-88
2023/11/19 11:58:00;;;;;;;1.17;0.85;;;11.20;99.90;;;;;;4954023;29;20078;-87
2023/11/19 12:00:28;;;;;;;1.10;0.80;;;11.30;99.90;;;;;;4954715;29;20050;-87
2023/11/19 12:03:00;;;;;;;1.75;0.65;;;11.40;99.90;;;;;;4954370;29;20528;-87
2023/11/19 12:05:27;;;;;;;3.72;1.10;;;11.40;99.90;;;;;;4955734;28;20031;-88
2023/11/19 12:08:07;;;;;;;5.38;2.25;;;11.40;99.90;;;;;;4954591;29;20178;-87
2023/11/19 12:10:59;;;;;;;5.75;3.05;;;11.40;99.90;;;;;;4954887;28;20079;-87
2023/11/19 12:13:29;;;;;;;2.42;0.90;;;11.40;99.90;;;;;;4955137;29;20064;-86
2023/11/19 12:16:07;;;;;;;3.00;1.30;;;11.50;99.90;;;;;;4955022;29;20046;-87
2023/11/19 12:18:33;;;;;;;0.60;0.60;;;11.50;99.90;;;;;;4955922;28;20183;-87
2023/11/19 12:21:00;;;;;;;2.78;1.10;;;11.50;99.90;;;;;;4954831;29;20067;-88
2023/11/19 12:23:29;;;;;;;2.13;0.47;;;11.50;99.90;;;;;;4955330;29;20033;-87
2023/11/19 12:25:55;;;;;;;1.73;0.60;;;11.60;99.90;;;;;;4955551;29;20034;-87
2023/11/19 12:28:22;;;;;;;1.55;0.80;;;11.60;99.90;;;;;;4955114;28;20126;-86
2023/11/19 12:30:49;;;;;;;0.98;0.65;;;11.60;99.90;;;;;;4954886;29;20035;-87
2023/11/19 12:33:16;;;;;;;1.83;0.82;;;11.60;99.90;;;;;;4954386;29;20062;-87
2023/11/19 12:35:43;;;;;;;1.15;0.50;;;11.60;99.90;;;;;;4953053;29;20027;-87
2023/11/19 12:38:18;;;;;;;0.98;0.70;;;11.60;99.90;;;;;;4954402;29;20046;-88
2023/11/19 12:40:44;;;;;;;1.13;0.60;;;11.70;99.90;;;;;;4954180;29;20027;-86
2023/11/19 12:43:10;;;;;;;0.40;0.40;;;11.70;99.90;;;;;;4954138;29;20510;-86